This is the latest recevied weather packets stored in our database for station/object W7JLW. If no packets are shown the sender has not sent any weather packets the latest 1 day(s).
| Time | Temp. | Humidity | Pressure | Rain* | Wind** | Luminosity | Snow |
|---|---|---|---|---|---|---|---|
| 1778115483 | 28.89° C | 20% | 1011.9 hPa | 0 mm | - | - | - |
| 1778115243 | 28.89° C | 20% | 1011.9 hPa | 0 mm | - | - | - |
| 1778115183 | 28.89° C | 20% | 1011.9 hPa | 0 mm | - | - | - |
| 1778115123 | 28.89° C | 19% | 1011.9 hPa | 0 mm | - | - | - |
| 1778114943 | 28.89° C | 20% | 1011.9 hPa | 0 mm | - | - | - |
| 1778114883 | 28.89° C | 19% | 1011.9 hPa | 0 mm | - | - | - |
| 1778114643 | 28.89° C | 19% | 1011.9 hPa | 0 mm | - | - | - |
| 1778114583 | 28.89° C | 19% | 1011.9 hPa | 0 mm | - | - | - |
| 1778114043 | 28.89° C | 19% | 1011.8 hPa | 0 mm | - | - | - |
| 1778113084 | 28.89° C | 19% | 1011.9 hPa | 0 mm | - | - | - |
| 1778112663 | 29.44° C | 18% | 1011.9 hPa | 0 mm | - | - | - |
| 1778107385 | 29.44° C | 19% | 1012.5 hPa | 0 mm | - | - | - |
| 1778101984 | 27.78° C | 21% | 1014.1 hPa | 0 mm | - | - | - |
| 1778098264 | 27.22° C | 23% | 1014.7 hPa | 0 mm | - | - | - |
| 1778097604 | 26.67° C | 23% | 1015 hPa | 0 mm | - | - | - |
| 1778096764 | 27.22° C | 24% | 1015.1 hPa | 0 mm | - | - | - |
| 1778095564 | 26.67° C | 25% | 1015.4 hPa | 0 mm | - | - | - |
| 1778094663 | 26.67° C | 26% | 1015.6 hPa | 0 mm | - | - | - |
| 1778093824 | 26.11° C | 28% | 1015.6 hPa | 0 mm | - | - | - |
| 1778092204 | 24.44° C | 32% | 1016 hPa | 0 mm | - | - | - |
| 1778090704 | 23.33° C | 34% | 1016.3 hPa | 0 mm | - | - | - |
| 1778090404 | 23.33° C | 35% | 1016.4 hPa | 0 mm | - | - | - |
| 1778084104 | 20° C | 42% | 1016 hPa | 0 mm | - | - | - |
| 1778081163 | 18.33° C | 44% | 1015.9 hPa | 0 mm | - | - | - |
| 1778075764 | 13.89° C | 56% | 1015.4 hPa | 0 mm | - | - | - |
* Rain latest hour (hover to see other rain measurements)
** Current wind speed in m/s (hover to see current wind gust speed)